This is the latest recevied weather packets stored in our database for station/object WR7DW-3. If no packets are shown the sender has not sent any weather packets the latest 10 day(s).
| Time | Temp. | Humidity | Pressure | Rain* | Wind** | Luminosity | Snow |
|---|---|---|---|---|---|---|---|
| 1778116475 | 8.33° C | 60% | 1007 hPa | 0 mm | - | - | - |
| 1778115575 | 8.33° C | 59% | 1007 hPa | 0 mm | - | - | - |
| 1778113775 | 8.33° C | 59% | 1007.3 hPa | 0 mm | - | - | - |
| 1778112875 | 8.33° C | 61% | 1007.5 hPa | 0 mm | - | - | - |
| 1778111975 | 9.44° C | 58% | 1007.5 hPa | 0 mm | - | - | - |
| 1778111075 | 8.89° C | 58% | 1007.7 hPa | 0 mm | - | - | - |
| 1778110175 | 8.89° C | 58% | 1008 hPa | 0 mm | - | - | - |
| 1778109275 | 9.44° C | 56% | 1007.9 hPa | 0 mm | - | - | - |
| 1778108375 | 8.33° C | 59% | 1008.1 hPa | 0 mm | - | - | - |
| 1778107475 | 8.33° C | 60% | 1008.1 hPa | 0 mm | - | - | - |
| 1778106575 | 7.78° C | 59% | 1008.6 hPa | 0 mm | - | - | - |
| 1778105675 | 8.33° C | 57% | 1008.7 hPa | 0 mm | - | - | - |
| 1778104775 | 8.33° C | 57% | 1009 hPa | 0 mm | - | - | - |
| 1778103876 | 7.78° C | 56% | 1009.1 hPa | 0 mm | - | - | - |
| 1778102977 | 8.33° C | 56% | 1009.3 hPa | 0 mm | - | - | - |
| 1778102077 | 7.78° C | 56% | 1009.5 hPa | 0 mm | - | - | - |
| 1778100276 | 7.22° C | 57% | 1009.3 hPa | 0 mm | - | - | - |
| 1778099376 | 6.67° C | 59% | 1009.4 hPa | 0 mm | - | - | - |
| 1778098476 | 6.11° C | 60% | 1009.3 hPa | 0 mm | - | - | - |
| 1778097576 | 6.11° C | 59% | 1009.4 hPa | 0 mm | - | - | - |
| 1778096676 | 5.56° C | 60% | 1009.6 hPa | 0 mm | - | - | - |
| 1778095776 | 4.44° C | 60% | 1009.8 hPa | 0 mm | - | - | - |
| 1778094876 | 4.44° C | 60% | 1010.2 hPa | 0 mm | - | - | - |
| 1778093976 | 3.89° C | 60% | 1010.2 hPa | 0 mm | - | - | - |
| 1778093076 | 3.33° C | 61% | 1010.4 hPa | 0 mm | - | - | - |
* Rain latest hour (hover to see other rain measurements)
** Current wind speed in m/s (hover to see current wind gust speed)